createdAt,value
2023-02-12T00:02:26.545Z,7.99
2023-02-12T00:04:53.757Z,7.96
2023-02-12T00:07:20.548Z,8.01
2023-02-12T00:09:47.647Z,8.02
2023-02-12T00:12:14.422Z,7.99
2023-02-12T00:14:41.507Z,7.97
2023-02-12T00:17:08.279Z,8.01
2023-02-12T00:19:35.501Z,7.99
2023-02-12T00:22:02.366Z,8.03
2023-02-12T00:24:29.442Z,8.03
2023-02-12T00:26:56.167Z,8.03
2023-02-12T00:29:23.233Z,7.99
2023-02-12T00:31:50.015Z,8.04
2023-02-12T00:34:17.094Z,8.06
2023-02-12T00:36:44.083Z,8.06
2023-02-12T00:39:11.547Z,8.09
2023-02-12T00:41:38.311Z,8.11
2023-02-12T00:44:05.392Z,8.04
2023-02-12T00:46:32.202Z,8.06
2023-02-12T00:48:59.378Z,8.05
2023-02-12T00:51:26.275Z,8.04
2023-02-12T00:53:53.379Z,8.08
2023-02-12T00:56:20.105Z,8.06
2023-02-12T00:58:47.140Z,8.09
2023-02-12T01:01:13.958Z,8.08
2023-02-12T01:03:41.083Z,8.10
2023-02-12T01:06:08.039Z,8.13
2023-02-12T01:08:35.248Z,8.14
2023-02-12T01:11:03.178Z,8.09
2023-02-12T01:13:30.914Z,8.14
2023-02-12T01:16:14.930Z,8.12
2023-02-12T01:18:42.043Z,8.10
2023-02-12T01:21:16.645Z,8.14
2023-02-12T01:23:43.970Z,8.19
2023-02-12T01:26:11.663Z,8.15
2023-02-12T01:28:39.515Z,8.12
2023-02-12T01:31:14.427Z,8.19
2023-02-12T01:33:41.600Z,8.14
2023-02-12T01:36:09.100Z,8.13
2023-02-12T01:38:36.133Z,8.18
2023-02-12T01:41:14.238Z,8.16
2023-02-12T01:43:41.573Z,8.12
2023-02-12T01:46:08.902Z,8.13
2023-02-12T01:48:38.134Z,8.28
2023-02-12T01:51:04.994Z,8.25
2023-02-12T01:53:35.654Z,8.17
2023-02-12T01:56:02.636Z,8.23
2023-02-12T01:58:36.345Z,8.18
2023-02-12T02:01:04.616Z,8.25
2023-02-12T02:03:32.084Z,8.17
2023-02-12T02:06:05.227Z,8.19
2023-02-12T02:08:32.877Z,8.21
2023-02-12T02:10:59.631Z,8.22
2023-02-12T02:13:45.297Z,8.21
2023-02-12T02:16:20.684Z,8.16
2023-02-12T02:18:56.700Z,8.21
2023-02-12T02:21:26.403Z,8.20
2023-02-12T02:24:11.838Z,8.22
2023-02-12T02:26:54.600Z,8.19
2023-02-12T02:29:59.208Z,8.24
2023-02-12T02:32:30.829Z,8.27
2023-02-12T02:35:05.468Z,8.23
2023-02-12T02:37:36.103Z,8.27
2023-02-12T02:40:28.089Z,8.27
2023-02-12T02:43:15.621Z,8.28
2023-02-12T02:45:48.504Z,8.29
2023-02-12T02:48:29.037Z,8.26
2023-02-12T02:50:58.032Z,8.27
2023-02-12T02:53:31.289Z,8.30
2023-02-12T02:55:59.604Z,8.28
2023-02-12T02:58:45.142Z,8.28
2023-02-12T03:01:26.795Z,8.29
2023-02-12T03:04:04.393Z,8.31
2023-02-12T03:06:38.875Z,8.34
2023-02-12T03:09:22.513Z,8.31
2023-02-12T03:11:53.477Z,8.35
2023-02-12T03:14:31.520Z,8.33
2023-02-12T03:16:59.559Z,8.28
2023-02-12T03:19:29.492Z,8.35
2023-02-12T03:22:05.011Z,8.31
2023-02-12T03:24:40.797Z,8.34
2023-02-12T03:27:18.229Z,8.34
2023-02-12T03:29:45.092Z,8.37
2023-02-12T03:32:36.772Z,8.32
2023-02-12T03:35:12.369Z,8.41
2023-02-12T03:37:42.449Z,8.39
2023-02-12T03:40:42.910Z,8.39
2023-02-12T03:43:16.569Z,8.37
2023-02-12T03:45:55.662Z,8.35
2023-02-12T03:48:27.157Z,8.42
2023-02-12T03:50:57.113Z,8.41
2023-02-12T03:53:26.181Z,8.42
2023-02-12T03:55:55.069Z,8.44
2023-02-12T03:58:23.919Z,8.41
2023-02-12T04:00:50.962Z,8.39
2023-02-12T04:03:17.987Z,8.33
2023-02-12T04:05:44.730Z,8.42
2023-02-12T04:08:12.349Z,8.43
2023-02-12T04:10:42.439Z,8.37
2023-02-12T04:13:26.477Z,8.40
2023-02-12T04:16:07.909Z,8.42
2023-02-12T04:18:43.201Z,8.39
2023-02-12T04:21:16.684Z,8.42
2023-02-12T04:24:02.104Z,8.43
2023-02-12T04:26:39.772Z,8.42
2023-02-12T04:29:18.975Z,8.42
2023-02-12T04:31:45.824Z,8.43
2023-02-12T04:34:18.335Z,8.39
2023-02-12T04:37:05.339Z,8.41
2023-02-12T04:39:33.776Z,8.39
2023-02-12T04:42:01.101Z,8.43
2023-02-12T04:44:31.370Z,8.41
2023-02-12T04:46:58.226Z,8.43
2023-02-12T04:49:25.463Z,8.43
2023-02-12T04:51:52.268Z,8.41
2023-02-12T04:54:20.150Z,8.39
2023-02-12T04:56:46.991Z,8.43
2023-02-12T04:59:14.248Z,8.40
2023-02-12T05:01:41.242Z,8.43
2023-02-12T05:04:08.551Z,8.49
2023-02-12T05:06:36.095Z,8.50
2023-02-12T05:09:04.066Z,8.45
2023-02-12T05:11:30.891Z,8.43
2023-02-12T05:13:58.170Z,8.43
2023-02-12T05:16:25.028Z,8.46
2023-02-12T05:18:52.119Z,8.47
2023-02-12T05:21:18.955Z,8.49
2023-02-12T05:23:46.122Z,8.45
2023-02-12T05:26:14.419Z,8.46
2023-02-12T05:28:41.596Z,8.44
2023-02-12T05:31:09.629Z,8.50
2023-02-12T05:33:36.759Z,8.46
2023-02-12T05:36:10.895Z,8.47
2023-02-12T05:38:37.908Z,8.48
2023-02-12T05:41:06.084Z,8.43
2023-02-12T05:43:33.219Z,8.48
2023-02-12T05:46:00.891Z,8.49
2023-02-12T05:48:28.314Z,8.49
2023-02-12T05:50:55.329Z,8.42
2023-02-12T05:53:22.380Z,8.53
2023-02-12T05:55:49.131Z,8.45
2023-02-12T05:58:16.279Z,8.47
2023-02-12T06:00:43.096Z,8.46
2023-02-12T06:03:10.177Z,8.48
2023-02-12T06:05:36.916Z,8.46
2023-02-12T06:08:04.135Z,8.41
2023-02-12T06:10:30.883Z,8.41
2023-02-12T06:12:57.946Z,8.47
2023-02-12T06:15:24.700Z,8.43
2023-02-12T06:17:51.732Z,8.47
2023-02-12T06:20:18.512Z,8.46
2023-02-12T06:22:45.548Z,8.47
2023-02-12T06:25:12.381Z,8.51
2023-02-12T06:27:39.455Z,8.53
2023-02-12T06:30:06.835Z,8.51
2023-02-12T06:32:33.882Z,8.49
2023-02-12T06:35:00.651Z,8.48
2023-02-12T06:37:27.732Z,8.52
2023-02-12T06:39:54.457Z,8.52
2023-02-12T06:42:21.524Z,8.53
2023-02-12T06:44:48.675Z,8.57
2023-02-12T06:47:16.913Z,8.56
2023-02-12T06:49:43.988Z,8.48
2023-02-12T06:52:11.044Z,8.53
2023-02-12T06:54:37.789Z,8.52
2023-02-12T06:57:04.854Z,8.50
2023-02-12T06:59:31.757Z,8.47
2023-02-12T07:01:58.808Z,8.55
2023-02-12T07:04:25.580Z,8.54
2023-02-12T07:06:52.692Z,8.48
2023-02-12T07:09:19.492Z,8.53
2023-02-12T07:11:46.548Z,8.54
2023-02-12T07:14:15.471Z,8.56
2023-02-12T07:16:42.796Z,8.52
2023-02-12T07:19:12.195Z,8.50
2023-02-12T07:21:39.250Z,8.54
2023-02-12T07:24:06.260Z,8.57
2023-02-12T07:26:33.348Z,8.59
2023-02-12T07:29:00.194Z,8.55
2023-02-12T07:31:27.412Z,8.63
2023-02-12T07:33:55.437Z,8.59
2023-02-12T07:36:22.783Z,8.61
2023-02-12T07:38:49.595Z,8.62
2023-02-12T07:41:27.464Z,8.64
2023-02-12T07:43:58.732Z,8.71
2023-02-12T07:46:29.970Z,8.77
2023-02-12T07:48:58.045Z,8.72
2023-02-12T07:51:25.242Z,8.72
2023-02-12T07:53:52.107Z,8.74
2023-02-12T07:56:21.480Z,8.73
2023-02-12T07:58:49.384Z,8.73
2023-02-12T08:01:19.512Z,8.72
2023-02-12T08:03:46.617Z,8.72
2023-02-12T08:06:19.090Z,8.69
2023-02-12T08:08:46.781Z,8.74
2023-02-12T08:11:14.475Z,8.77
2023-02-12T08:13:41.390Z,8.77
2023-02-12T08:16:10.628Z,8.80
2023-02-12T08:18:37.409Z,8.78
2023-02-12T08:21:09.219Z,8.83
2023-02-12T08:23:36.055Z,8.83
2023-02-12T08:26:20.193Z,8.82
2023-02-12T08:28:48.790Z,8.81
2023-02-12T08:31:18.362Z,8.77
2023-02-12T08:33:45.642Z,8.79
2023-02-12T08:36:14.682Z,8.84
2023-02-12T08:38:42.136Z,8.85
2023-02-12T08:41:11.082Z,8.90
2023-02-12T08:43:38.334Z,8.86
2023-02-12T08:46:11.030Z,8.86
2023-02-12T08:48:38.011Z,8.86
2023-02-12T08:51:06.884Z,8.89
2023-02-12T08:53:33.680Z,8.94
2023-02-12T08:56:00.836Z,8.97
2023-02-12T08:58:27.609Z,8.97
2023-02-12T09:00:54.731Z,9.01
2023-02-12T09:03:21.566Z,9.06
2023-02-12T09:05:48.690Z,9.10
2023-02-12T09:08:15.549Z,9.16
2023-02-12T09:10:42.934Z,9.17
2023-02-12T09:13:10.468Z,9.14
2023-02-12T09:15:44.534Z,9.20
2023-02-12T09:18:12.422Z,9.21
2023-02-12T09:20:40.912Z,9.24
2023-02-12T09:23:08.593Z,9.23
2023-02-12T09:25:35.718Z,9.24
2023-02-12T09:28:02.624Z,9.25
2023-02-12T09:30:29.829Z,9.28
2023-02-12T09:32:56.906Z,9.29
2023-02-12T09:35:24.478Z,9.24
2023-02-12T09:37:52.749Z,9.23
2023-02-12T09:40:51.017Z,9.23
2023-02-12T09:43:35.957Z,9.26
2023-02-12T09:46:07.320Z,9.20
2023-02-12T09:48:40.438Z,9.19
2023-02-12T09:51:07.871Z,9.22
2023-02-12T09:53:36.722Z,9.22
2023-02-12T09:56:09.915Z,9.21
2023-02-12T09:58:41.901Z,9.23
2023-02-12T10:01:17.121Z,9.20
2023-02-12T10:03:44.688Z,9.23
2023-02-12T10:06:15.213Z,9.24
2023-02-12T10:08:52.462Z,9.29
2023-02-12T10:11:54.065Z,9.29
2023-02-12T10:14:23.553Z,9.33
2023-02-12T10:16:59.758Z,9.33
2023-02-12T10:19:49.568Z,9.34
2023-02-12T10:22:22.587Z,9.31
2023-02-12T10:24:56.720Z,9.33
2023-02-12T10:27:41.076Z,9.39
2023-02-12T10:30:33.804Z,9.40
2023-02-12T10:33:04.053Z,9.41
2023-02-12T10:35:30.842Z,9.43
2023-02-12T10:38:00.828Z,9.45
2023-02-12T10:40:30.069Z,9.51
2023-02-12T10:43:00.439Z,9.51
2023-02-12T10:45:31.285Z,9.49
2023-02-12T10:48:04.754Z,9.51
2023-02-12T10:50:43.898Z,9.54
2023-02-12T10:53:26.861Z,9.53
2023-02-12T10:56:12.146Z,9.59
2023-02-12T10:58:40.430Z,9.62
2023-02-12T11:01:32.114Z,9.66
2023-02-12T11:04:00.720Z,9.66
2023-02-12T11:06:29.191Z,9.67
2023-02-12T11:08:56.865Z,9.70
2023-02-12T11:11:28.568Z,9.76
2023-02-12T11:14:02.754Z,9.76
2023-02-12T11:16:31.867Z,9.81
2023-02-12T11:19:07.065Z,9.83
2023-02-12T11:21:34.667Z,9.82
2023-02-12T11:24:21.289Z,9.89
2023-02-12T11:26:48.052Z,9.92
2023-02-12T11:29:24.503Z,9.96
2023-02-12T11:32:02.254Z,10.06
2023-02-12T11:34:29.965Z,10.10
2023-02-12T11:36:56.789Z,10.11
2023-02-12T11:39:27.911Z,10.16
2023-02-12T11:42:14.863Z,10.15
2023-02-12T11:44:43.762Z,10.21
2023-02-12T11:47:17.745Z,10.25
2023-02-12T11:49:49.504Z,10.24
2023-02-12T11:52:32.693Z,10.33
2023-02-12T11:55:01.480Z,10.37
2023-02-12T11:58:04.683Z,10.37
2023-02-12T12:00:39.601Z,10.43
2023-02-12T12:03:19.486Z,10.45
2023-02-12T12:05:57.675Z,10.50
2023-02-12T12:08:46.672Z,10.56
2023-02-12T12:11:20.126Z,10.61
2023-02-12T12:13:59.358Z,10.65
2023-02-12T12:17:06.430Z,10.70
2023-02-12T12:19:56.082Z,10.79
2023-02-12T12:22:41.893Z,10.80
2023-02-12T12:25:27.436Z,10.86
2023-02-12T12:28:03.590Z,10.90
2023-02-12T12:30:48.980Z,10.99
2023-02-12T12:33:23.220Z,11.05
2023-02-12T12:35:56.280Z,11.11
2023-02-12T12:38:30.563Z,11.13
2023-02-12T12:41:20.819Z,11.14
2023-02-12T12:44:10.418Z,11.21
2023-02-12T12:46:40.159Z,11.26
2023-02-12T12:49:12.474Z,11.32
2023-02-12T12:52:01.043Z,11.33
2023-02-12T12:54:44.879Z,11.41
2023-02-12T12:57:21.059Z,11.45
2023-02-12T13:00:00.817Z,11.48
2023-02-12T13:02:48.938Z,11.51
2023-02-12T13:05:55.223Z,11.56
2023-02-12T13:08:35.252Z,11.59
2023-02-12T13:11:17.616Z,11.64
2023-02-12T13:13:46.311Z,11.66
2023-02-12T13:16:22.522Z,11.69
2023-02-12T13:18:55.346Z,11.78
2023-02-12T13:21:47.820Z,11.79
2023-02-12T13:24:18.760Z,11.80
2023-02-12T13:26:48.539Z,11.83
2023-02-12T13:29:28.078Z,11.85
2023-02-12T13:32:03.847Z,11.86
2023-02-12T13:34:30.871Z,11.89
2023-02-12T13:37:00.383Z,11.93
2023-02-12T13:39:39.202Z,11.95
2023-02-12T13:42:43.193Z,11.95
2023-02-12T13:45:30.776Z,11.99
2023-02-12T13:48:00.923Z,11.98
2023-02-12T13:50:34.555Z,12.01
2023-02-12T13:53:12.476Z,12.02
2023-02-12T13:55:50.767Z,12.05
2023-02-12T13:58:39.365Z,12.08
2023-02-12T14:01:08.755Z,12.10
2023-02-12T14:03:36.555Z,12.11
2023-02-12T14:06:17.891Z,12.12
2023-02-12T14:08:52.695Z,12.13
2023-02-12T14:11:23.746Z,12.13
2023-02-12T14:14:04.957Z,12.13
2023-02-12T14:16:31.713Z,12.16
2023-02-12T14:19:36.332Z,12.19
2023-02-12T14:22:32.734Z,12.21
2023-02-12T14:25:25.294Z,12.24
2023-02-12T14:27:57.273Z,12.27
2023-02-12T14:30:31.749Z,12.28
2023-02-12T14:33:08.502Z,12.30
2023-02-12T14:35:37.247Z,12.33
2023-02-12T14:38:10.293Z,12.31
2023-02-12T14:40:42.281Z,12.33
2023-02-12T14:43:55.190Z,12.34
2023-02-12T14:46:22.446Z,12.34
2023-02-12T14:48:53.471Z,12.35
2023-02-12T14:51:36.192Z,12.35
2023-02-12T14:54:04.342Z,12.37
2023-02-12T14:56:31.718Z,12.37
2023-02-12T14:58:58.493Z,12.38
2023-02-12T15:01:29.543Z,12.38
2023-02-12T15:03:56.383Z,12.39
2023-02-12T15:06:27.695Z,12.39
2023-02-12T15:08:57.819Z,12.39
2023-02-12T15:11:29.588Z,12.38
2023-02-12T15:14:15.192Z,12.37
2023-02-12T15:16:54.393Z,12.38
2023-02-12T15:19:31.510Z,12.36
2023-02-12T15:21:58.559Z,12.35
2023-02-12T15:24:25.867Z,12.36
2023-02-12T15:26:58.298Z,12.35
2023-02-12T15:29:29.185Z,12.32
2023-02-12T15:32:06.753Z,12.31
2023-02-12T15:34:35.550Z,12.29
2023-02-12T15:37:03.001Z,12.28
2023-02-12T15:39:43.724Z,12.23
2023-02-12T15:42:30.289Z,12.20
2023-02-12T15:45:15.299Z,12.14
2023-02-12T15:47:43.252Z,12.13
2023-02-12T15:50:14.097Z,12.09
2023-02-12T15:52:42.382Z,12.06
2023-02-12T15:55:20.793Z,12.02
2023-02-12T15:57:58.630Z,11.96
2023-02-12T16:00:31.581Z,11.93
2023-02-12T16:02:58.967Z,11.92
2023-02-12T16:05:25.978Z,11.91
2023-02-12T16:07:53.431Z,11.85
2023-02-12T16:10:20.617Z,11.80
2023-02-12T16:12:48.398Z,11.80
2023-02-12T16:15:30.884Z,11.74
2023-02-12T16:17:59.750Z,11.72
2023-02-12T16:20:28.359Z,11.65
2023-02-12T16:22:55.851Z,11.65
2023-02-12T16:25:28.353Z,11.60
2023-02-12T16:28:03.005Z,11.61
2023-02-12T16:30:32.672Z,11.56
2023-02-12T16:33:00.762Z,11.50
2023-02-12T16:35:35.548Z,11.47
2023-02-12T16:38:27.647Z,11.45
2023-02-12T16:41:25.509Z,11.38
2023-02-12T16:44:02.049Z,11.35
2023-02-12T16:46:29.984Z,11.35
2023-02-12T16:48:58.189Z,11.32
2023-02-12T16:51:31.031Z,11.27
2023-02-12T16:54:02.336Z,11.27
2023-02-12T16:56:32.669Z,11.18
2023-02-12T16:59:00.502Z,11.19
2023-02-12T17:01:28.020Z,11.14
2023-02-12T17:03:55.322Z,11.07
2023-02-12T17:06:23.626Z,11.06
2023-02-12T17:08:50.930Z,10.99
2023-02-12T17:11:18.107Z,10.97
2023-02-12T17:13:46.101Z,10.95
2023-02-12T17:16:21.627Z,10.87
2023-02-12T17:18:55.771Z,10.85
2023-02-12T17:21:38.155Z,10.81
2023-02-12T17:24:15.205Z,10.77
2023-02-12T17:26:41.959Z,10.77
2023-02-12T17:29:09.066Z,10.74
2023-02-12T17:31:36.827Z,10.64
2023-02-12T17:34:04.760Z,10.63
2023-02-12T17:36:31.692Z,10.62
2023-02-12T17:38:59.175Z,10.53
2023-02-12T17:41:25.937Z,10.51
2023-02-12T17:43:53.106Z,10.51
2023-02-12T17:46:21.844Z,10.41
2023-02-12T17:48:48.944Z,10.40
2023-02-12T17:51:16.165Z,10.40
2023-02-12T17:53:43.444Z,10.33
2023-02-12T17:56:18.235Z,10.27
2023-02-12T17:58:45.701Z,10.29
2023-02-12T18:01:14.260Z,10.23
2023-02-12T18:03:41.576Z,10.18
2023-02-12T18:06:09.016Z,10.10
2023-02-12T18:08:36.185Z,10.12
2023-02-12T18:11:06.926Z,10.03
2023-02-12T18:13:34.066Z,10.03
2023-02-12T18:16:01.431Z,10.02
2023-02-12T18:18:28.542Z,9.94
2023-02-12T18:20:55.718Z,9.91
2023-02-12T18:23:23.063Z,9.93
2023-02-12T18:25:49.866Z,9.85
2023-02-12T18:28:17.202Z,9.83
2023-02-12T18:30:44.231Z,9.80
2023-02-12T18:33:12.066Z,9.76
2023-02-12T18:35:41.712Z,9.76
2023-02-12T18:38:08.826Z,9.71
2023-02-12T18:40:35.690Z,9.63
2023-02-12T18:43:02.807Z,9.69
2023-02-12T18:45:29.561Z,9.64
2023-02-12T18:47:56.675Z,9.60
2023-02-12T18:50:23.490Z,9.52
2023-02-12T18:52:50.571Z,9.51
2023-02-12T18:55:17.475Z,9.49
2023-02-12T18:57:44.589Z,9.47
2023-02-12T19:00:11.823Z,9.39
2023-02-12T19:02:39.071Z,9.40
2023-02-12T19:05:06.117Z,9.33
2023-02-12T19:07:33.333Z,9.35
2023-02-12T19:10:00.118Z,9.26
2023-02-12T19:12:27.415Z,9.25
2023-02-12T19:14:54.213Z,9.21
2023-02-12T19:17:21.291Z,9.20
2023-02-12T19:19:51.277Z,9.14
2023-02-12T19:22:18.789Z,9.13
2023-02-12T19:24:47.210Z,9.10
2023-02-12T19:27:14.488Z,9.08
2023-02-12T19:29:41.320Z,9.06
2023-02-12T19:32:08.624Z,9.04
2023-02-12T19:34:35.603Z,9.00
2023-02-12T19:37:02.809Z,8.88
2023-02-12T19:39:29.666Z,8.88
2023-02-12T19:41:56.851Z,8.89
2023-02-12T19:44:24.436Z,8.86
2023-02-12T19:46:52.926Z,8.88
2023-02-12T19:49:24.860Z,8.83
2023-02-12T19:51:52.308Z,8.78
2023-02-12T19:54:19.783Z,8.76
2023-02-12T19:56:46.962Z,8.72
2023-02-12T19:59:17.168Z,8.68
2023-02-12T20:01:44.934Z,8.66
2023-02-12T20:04:16.682Z,8.65
2023-02-12T20:06:51.252Z,8.55
2023-02-12T20:09:19.309Z,8.62
2023-02-12T20:11:47.975Z,8.49
2023-02-12T20:14:15.163Z,8.53
2023-02-12T20:16:46.650Z,8.44
2023-02-12T20:19:20.151Z,8.43
2023-02-12T20:21:53.238Z,8.45
2023-02-12T20:24:24.128Z,8.38
2023-02-12T20:26:51.451Z,8.34
2023-02-12T20:29:18.595Z,8.33
2023-02-12T20:31:46.052Z,8.34
2023-02-12T20:34:14.433Z,8.29
2023-02-12T20:36:42.488Z,8.32
2023-02-12T20:39:10.804Z,8.27
2023-02-12T20:41:37.979Z,8.22
2023-02-12T20:44:05.952Z,8.14
2023-02-12T20:46:36.152Z,8.14
2023-02-12T20:49:03.422Z,8.11
2023-02-12T20:51:31.216Z,8.12
2023-02-12T20:54:00.213Z,8.09
2023-02-12T20:56:29.900Z,8.04
2023-02-12T20:58:56.764Z,8.04
2023-02-12T21:01:25.854Z,7.99
2023-02-12T21:03:54.343Z,8.03
2023-02-12T21:06:22.124Z,7.98
2023-02-12T21:08:49.495Z,7.97
2023-02-12T21:11:21.828Z,7.95
2023-02-12T21:14:02.283Z,7.95
2023-02-12T21:16:31.794Z,7.89
2023-02-12T21:18:58.717Z,7.89
2023-02-12T21:21:27.638Z,7.91
2023-02-12T21:23:56.879Z,7.90
2023-02-12T21:26:25.602Z,7.93
2023-02-12T21:28:52.716Z,7.87
2023-02-12T21:31:37.286Z,7.88
2023-02-12T21:34:04.989Z,7.84
2023-02-12T21:36:34.569Z,7.82
2023-02-12T21:39:01.456Z,7.84
2023-02-12T21:41:34.495Z,7.81
2023-02-12T21:44:06.305Z,7.76
2023-02-12T21:46:34.718Z,7.77
2023-02-12T21:49:01.603Z,7.72
2023-02-12T21:51:34.106Z,7.74
2023-02-12T21:54:02.892Z,7.67
2023-02-12T21:56:30.130Z,7.74
2023-02-12T21:58:58.189Z,7.71
2023-02-12T22:01:29.850Z,7.72
2023-02-12T22:03:56.684Z,7.70
2023-02-12T22:06:24.730Z,7.70
2023-02-12T22:08:55.522Z,7.68
2023-02-12T22:11:23.014Z,7.65
2023-02-12T22:13:49.845Z,7.60
2023-02-12T22:16:23.555Z,7.64
2023-02-12T22:18:55.029Z,7.68
2023-02-12T22:21:23.728Z,7.63
2023-02-12T22:23:50.652Z,7.65
2023-02-12T22:26:22.892Z,7.66
2023-02-12T22:28:57.521Z,7.64
2023-02-12T22:31:29.458Z,7.65
2023-02-12T22:34:00.953Z,7.67
2023-02-12T22:36:28.317Z,7.68
2023-02-12T22:38:56.138Z,7.67
2023-02-12T22:41:23.278Z,7.73
2023-02-12T22:43:50.207Z,7.64
2023-02-12T22:46:17.487Z,7.67
2023-02-12T22:48:44.375Z,7.67
2023-02-12T22:51:24.944Z,7.67
2023-02-12T22:53:51.752Z,7.63
2023-02-12T22:56:18.975Z,7.63
2023-02-12T22:58:46.026Z,7.59
2023-02-12T23:01:14.833Z,7.61
2023-02-12T23:03:41.849Z,7.67
2023-02-12T23:06:11.626Z,7.71
2023-02-12T23:08:38.448Z,7.66
2023-02-12T23:11:07.114Z,7.67
2023-02-12T23:13:35.746Z,7.64
2023-02-12T23:16:03.035Z,7.69
2023-02-12T23:18:30.345Z,7.63
2023-02-12T23:20:57.938Z,7.64
2023-02-12T23:23:24.908Z,7.65
2023-02-12T23:25:53.943Z,7.70
2023-02-12T23:28:21.185Z,7.65
2023-02-12T23:30:49.138Z,7.69
2023-02-12T23:33:16.075Z,7.70
2023-02-12T23:35:44.135Z,7.68
2023-02-12T23:38:10.894Z,7.67
2023-02-12T23:40:38.074Z,7.65
2023-02-12T23:43:04.986Z,7.68
2023-02-12T23:45:32.129Z,7.74
2023-02-12T23:47:59.003Z,7.72
2023-02-12T23:50:26.106Z,7.72
2023-02-12T23:52:52.873Z,7.73
2023-02-12T23:55:20.342Z,7.74
2023-02-12T23:57:47.606Z,7.73
